Terminal Aerodrome Forecast
Issued by NWS New Orleans/Baton Rouge, LA

Home | Current Version | Previous Version | Text Only | Print | Product List | Glossary On
Versions: 1 2 3 4 5 6 7 8 9 10 11 12 13 14 15
000
FTUS44 KLIX 212328
TAFBTR
TAF
KBTR 212328Z 2200/2224 VRB05KT P6SM VCSH SCT050 BKN110
     FM220200 14004KT P6SM FEW045 SCT110
      TEMPO 2210/2213 5SM BR
     FM221600 00000KT P6SM SCT040 BKN110 PROB30 2217/2223 4SM -TSRA
      BKN040CB BKN050=

USA.gov is the U.S. government's official web portal to all federal, state and local government web resources and services.